createdAt,value
2022-11-06T00:00:27.246Z,7.40
2022-11-06T00:04:40.994Z,7.60
2022-11-06T00:08:55.303Z,7.43
2022-11-06T00:13:10.531Z,7.47
2022-11-06T00:17:24.229Z,7.55
2022-11-06T00:21:38.320Z,7.47
2022-11-06T00:25:56.481Z,7.38
2022-11-06T00:30:12.757Z,7.35
2022-11-06T00:34:26.430Z,7.60
2022-11-06T00:38:40.418Z,4.80
2022-11-06T00:49:59.541Z,7.53
2022-11-06T00:54:53.901Z,7.40
2022-11-06T00:59:48.308Z,8.43
2022-11-06T01:04:42.755Z,6.03
2022-11-06T01:09:38.898Z,8.33
2022-11-06T01:14:33.152Z,8.40
2022-11-06T01:19:02.888Z,7.00
2022-11-06T01:23:35.282Z,8.45
2022-11-06T01:27:50.541Z,7.97
2022-11-06T01:32:04.918Z,6.78
2022-11-06T01:36:20.602Z,7.35
2022-11-06T01:40:41.324Z,6.23
2022-11-06T01:45:23.235Z,8.13
2022-11-06T01:49:39.466Z,7.43
2022-11-06T01:54:00.920Z,7.27
2022-11-06T01:58:21.086Z,8.48
2022-11-06T02:02:36.941Z,7.47
2022-11-06T02:06:51.272Z,8.02
2022-11-06T02:11:05.092Z,7.20
2022-11-06T02:15:31.865Z,8.45
2022-11-06T02:20:05.425Z,7.40
2022-11-06T02:24:43.357Z,8.03
2022-11-06T02:29:03.820Z,8.05
2022-11-06T02:33:22.586Z,7.78
2022-11-06T02:37:38.591Z,7.43
2022-11-06T02:41:54.493Z,6.85
2022-11-06T02:46:14.408Z,7.25
2022-11-06T02:50:32.957Z,7.22
2022-11-06T02:54:51.558Z,6.93
2022-11-06T02:59:10.315Z,6.93
2022-11-06T03:03:29.330Z,8.63
2022-11-06T03:07:48.437Z,8.67
2022-11-06T03:12:11.421Z,6.38
2022-11-06T03:16:34.701Z,7.35
2022-11-06T03:20:58.392Z,7.60
2022-11-06T03:25:19.690Z,8.45
2022-11-06T03:29:41.546Z,8.30
2022-11-06T03:33:59.609Z,9.00
2022-11-06T03:38:20.295Z,7.53
2022-11-06T03:42:34.293Z,8.60
2022-11-06T03:46:51.285Z,9.05
2022-11-06T03:51:09.399Z,9.37
2022-11-06T03:55:31.087Z,8.18
2022-11-06T03:59:51.447Z,7.55
2022-11-06T04:04:10.456Z,6.87
2022-11-06T04:08:45.344Z,8.25
2022-11-06T04:13:18.684Z,8.73
2022-11-06T04:17:33.397Z,8.52
2022-11-06T04:22:03.088Z,8.20
2022-11-06T04:26:39.311Z,9.00
2022-11-06T04:31:06.825Z,8.45
2022-11-06T04:35:30.145Z,8.97
2022-11-06T04:39:53.108Z,8.02
2022-11-06T04:44:11.343Z,9.63
2022-11-06T04:48:27.389Z,9.50
2022-11-06T04:52:42.070Z,8.23
2022-11-06T04:57:00.506Z,9.55
2022-11-06T05:01:14.364Z,10.48
2022-11-06T05:05:29.534Z,9.57
2022-11-06T05:09:43.586Z,10.25
2022-11-06T05:13:57.393Z,10.02
2022-11-06T05:18:11.694Z,10.47
2022-11-06T05:22:44.481Z,10.85
2022-11-06T05:26:59.780Z,8.88
2022-11-06T05:31:13.860Z,9.77
2022-11-06T05:35:27.618Z,8.82
2022-11-06T05:39:42.755Z,7.28
2022-11-06T05:43:56.497Z,9.43
2022-11-06T05:48:10.432Z,9.30
2022-11-06T05:52:24.483Z,7.18
2022-11-06T05:56:39.841Z,7.13
2022-11-06T06:00:54.959Z,6.37
2022-11-06T06:05:09.876Z,7.10
2022-11-06T06:09:23.666Z,7.32
2022-11-06T06:13:38.801Z,7.03
2022-11-06T06:17:52.563Z,8.25
2022-11-06T06:22:06.282Z,7.38
2022-11-06T06:26:20.018Z,6.20
2022-11-06T06:30:35.965Z,7.03
2022-11-06T06:34:49.711Z,6.30
2022-11-06T06:39:03.454Z,7.93
2022-11-06T06:43:17.175Z,6.67
2022-11-06T06:47:32.233Z,6.00
2022-11-06T06:51:45.995Z,6.93
2022-11-06T06:56:00.693Z,7.53
2022-11-06T07:00:14.896Z,5.53
2022-11-06T07:04:30.043Z,7.30
2022-11-06T07:08:44.053Z,5.03
2022-11-06T07:13:01.189Z,6.63
2022-11-06T07:17:14.962Z,4.82
2022-11-06T07:21:30.099Z,6.78
2022-11-06T07:25:44.000Z,7.10
2022-11-06T07:29:57.663Z,7.45
2022-11-06T07:34:11.452Z,7.28
2022-11-06T07:38:26.528Z,7.73
2022-11-06T07:42:43.514Z,7.55
2022-11-06T07:47:01.871Z,6.68
2022-11-06T07:51:15.531Z,5.07
2022-11-06T07:55:30.691Z,4.90
2022-11-06T07:59:44.517Z,5.65
2022-11-06T08:03:58.354Z,6.38
2022-11-06T08:08:12.722Z,6.40
2022-11-06T08:12:27.886Z,5.30
2022-11-06T08:16:41.710Z,6.63
2022-11-06T08:20:56.696Z,5.50
2022-11-06T08:25:20.043Z,4.18
2022-11-06T08:29:40.897Z,5.68
2022-11-06T08:33:55.256Z,5.95
2022-11-06T08:38:09.050Z,6.03
2022-11-06T08:42:22.785Z,4.35
2022-11-06T08:46:37.864Z,5.18
2022-11-06T08:50:51.749Z,5.60
2022-11-06T08:55:06.213Z,5.65
2022-11-06T08:59:19.955Z,5.25
2022-11-06T09:03:35.177Z,5.67
2022-11-06T09:07:48.870Z,4.32
2022-11-06T09:12:03.673Z,4.80
2022-11-06T09:16:17.515Z,4.60
2022-11-06T09:20:32.656Z,4.90
2022-11-06T09:25:04.075Z,6.00
2022-11-06T09:29:18.472Z,4.90
2022-11-06T09:33:32.135Z,5.00
2022-11-06T09:37:47.519Z,4.43
2022-11-06T09:42:05.112Z,5.47
2022-11-06T09:46:23.821Z,4.50
2022-11-06T09:50:41.641Z,4.20
2022-11-06T09:55:01.480Z,4.82
2022-11-06T09:59:18.902Z,3.92
2022-11-06T10:03:41.606Z,3.73
2022-11-06T10:07:58.032Z,3.45
2022-11-06T10:12:20.622Z,3.90
2022-11-06T10:16:41.806Z,3.30
2022-11-06T10:21:02.206Z,2.95
2022-11-06T10:25:22.088Z,3.30
2022-11-06T10:29:59.321Z,3.70
2022-11-06T10:34:16.997Z,3.75
2022-11-06T10:38:34.804Z,3.22
2022-11-06T10:42:54.772Z,3.42
2022-11-06T10:47:15.319Z,3.40
2022-11-06T10:51:40.268Z,4.40
2022-11-06T10:56:11.023Z,3.17
2022-11-06T11:00:25.504Z,3.10
2022-11-06T11:04:41.150Z,2.67
2022-11-06T11:08:54.870Z,2.95
2022-11-06T11:13:21.855Z,3.33
2022-11-06T11:17:35.600Z,2.72
2022-11-06T11:21:56.656Z,3.25
2022-11-06T11:26:22.831Z,3.25
2022-11-06T11:30:36.565Z,3.33
2022-11-06T11:34:56.633Z,3.20
2022-11-06T11:39:12.749Z,3.40
2022-11-06T11:43:28.780Z,3.73
2022-11-06T11:47:45.956Z,2.55
2022-11-06T11:52:01.818Z,3.10
2022-11-06T11:56:42.444Z,3.67
2022-11-06T12:22:20.035Z,3.00
2022-11-06T12:26:38.047Z,3.10
2022-11-06T12:31:05.492Z,2.63
2022-11-06T12:35:26.149Z,3.60
2022-11-06T12:39:41.720Z,3.10
2022-11-06T12:43:57.006Z,3.43
2022-11-06T12:48:29.515Z,3.42
2022-11-06T12:53:06.331Z,3.20
2022-11-06T12:57:28.818Z,2.77
2022-11-06T13:01:52.913Z,3.08
2022-11-06T13:06:14.386Z,2.83
2022-11-06T13:10:37.948Z,2.75
2022-11-06T13:15:04.476Z,2.73
2022-11-06T13:19:25.761Z,2.72
2022-11-06T13:23:49.225Z,2.45
2022-11-06T13:28:24.018Z,2.63
2022-11-06T13:32:40.411Z,3.00
2022-11-06T13:36:55.801Z,3.42
2022-11-06T13:41:16.156Z,3.47
2022-11-06T13:45:36.231Z,3.58
2022-11-06T13:49:59.961Z,3.45
2022-11-06T13:54:36.433Z,2.90
2022-11-06T13:59:08.245Z,2.83
2022-11-06T14:03:56.831Z,3.42
2022-11-06T14:08:17.264Z,3.72
2022-11-06T14:12:31.211Z,3.33
2022-11-06T14:16:48.163Z,3.28
2022-11-06T14:21:42.975Z,3.42
2022-11-06T14:26:00.962Z,3.20
2022-11-06T14:31:10.354Z,3.55
2022-11-06T14:35:53.316Z,3.80
2022-11-06T14:40:13.133Z,2.88
2022-11-06T14:44:35.677Z,4.40
2022-11-06T14:48:53.229Z,4.10
2022-11-06T14:53:21.340Z,3.65
2022-11-06T14:57:42.987Z,4.17
2022-11-06T15:02:03.590Z,4.00
2022-11-06T15:06:41.758Z,3.60
2022-11-06T15:10:56.915Z,3.93
2022-11-06T15:15:18.249Z,4.03
2022-11-06T15:19:39.536Z,3.65
2022-11-06T15:24:04.684Z,4.40
2022-11-06T15:28:24.660Z,4.27
2022-11-06T15:32:42.067Z,5.00
2022-11-06T15:37:04.687Z,3.83
2022-11-06T15:41:22.466Z,4.87
2022-11-06T15:45:37.994Z,5.03
2022-11-06T15:50:12.104Z,5.45
2022-11-06T15:54:36.029Z,4.80
2022-11-06T15:59:07.571Z,4.97
2022-11-06T16:03:24.579Z,5.00
2022-11-06T16:07:38.932Z,5.50
2022-11-06T16:11:54.014Z,5.13
2022-11-06T16:16:28.127Z,5.05
2022-11-06T16:20:44.649Z,4.57
2022-11-06T16:25:01.687Z,5.43
2022-11-06T16:29:20.281Z,5.82
2022-11-06T16:33:34.301Z,5.47
2022-11-06T16:37:50.207Z,4.47
2022-11-06T16:42:19.719Z,4.60
2022-11-06T16:47:13.253Z,5.90
2022-11-06T16:51:32.736Z,5.70
2022-11-06T16:55:54.520Z,4.93
2022-11-06T17:00:23.475Z,5.18
2022-11-06T17:04:37.445Z,4.45
2022-11-06T17:09:24.994Z,5.80
2022-11-06T17:13:43.088Z,4.45
2022-11-06T17:17:57.016Z,5.35
2022-11-06T17:22:11.745Z,6.27
2022-11-06T17:26:28.969Z,6.60
2022-11-06T17:30:44.420Z,4.75
2022-11-06T17:34:58.594Z,4.57
2022-11-06T17:39:12.417Z,6.17
2022-11-06T17:43:26.194Z,6.63
2022-11-06T17:47:41.613Z,6.47
2022-11-06T17:51:59.880Z,7.87
2022-11-06T17:56:14.413Z,7.80
2022-11-06T18:00:28.475Z,7.60
2022-11-06T18:04:44.481Z,6.70
2022-11-06T18:08:58.630Z,6.30
2022-11-06T18:13:12.625Z,4.55
2022-11-06T18:17:26.729Z,5.35
2022-11-06T18:21:42.468Z,6.73
2022-11-06T18:25:58.249Z,7.35
2022-11-06T18:30:13.371Z,8.07
2022-11-06T18:34:27.091Z,7.63
2022-11-06T18:38:43.147Z,7.45
2022-11-06T18:42:57.224Z,6.93
2022-11-06T18:47:10.996Z,7.90
2022-11-06T18:51:35.015Z,7.22
2022-11-06T18:55:50.490Z,7.60
2022-11-06T19:00:05.327Z,6.68
2022-11-06T19:04:19.237Z,5.00
2022-11-06T19:08:32.937Z,8.27
2022-11-06T19:12:48.007Z,7.25
2022-11-06T19:17:01.807Z,8.47
2022-11-06T19:21:15.706Z,6.70
2022-11-06T19:25:29.548Z,5.90
2022-11-06T19:29:44.659Z,9.13
2022-11-06T19:33:59.130Z,7.10
2022-11-06T19:38:12.900Z,7.63
2022-11-06T19:42:26.617Z,7.50
2022-11-06T19:46:41.798Z,7.10
2022-11-06T19:51:00.056Z,7.57
2022-11-06T19:55:26.032Z,7.25
2022-11-06T19:59:41.220Z,6.80
2022-11-06T20:03:56.583Z,8.75
2022-11-06T20:08:10.898Z,7.60
2022-11-06T20:12:24.620Z,7.67
2022-11-06T20:16:38.404Z,8.48
2022-11-06T20:20:53.498Z,6.93
2022-11-06T20:25:08.073Z,8.85
2022-11-06T20:29:22.046Z,8.90
2022-11-06T20:33:36.360Z,6.78
2022-11-06T20:37:51.438Z,7.32
2022-11-06T20:42:05.463Z,6.60
2022-11-06T20:46:20.232Z,6.50
2022-11-06T20:50:34.593Z,8.50
2022-11-06T20:54:49.784Z,7.50
2022-11-06T20:59:03.498Z,6.05
2022-11-06T21:03:17.456Z,5.85
2022-11-06T21:07:31.418Z,6.13
2022-11-06T21:11:46.559Z,4.97
2022-11-06T21:16:01.843Z,5.85
2022-11-06T21:20:20.382Z,6.63
2022-11-06T21:24:36.599Z,5.87
2022-11-06T21:28:52.310Z,5.20
2022-11-06T21:33:06.047Z,6.05
2022-11-06T21:37:20.170Z,5.87
2022-11-06T21:41:34.656Z,6.72
2022-11-06T21:45:49.692Z,6.35
2022-11-06T21:50:03.449Z,6.53
2022-11-06T21:54:34.564Z,7.53
2022-11-06T21:58:54.779Z,6.82
2022-11-06T22:03:09.819Z,6.07
2022-11-06T22:07:23.521Z,5.57
2022-11-06T22:11:39.312Z,5.88
2022-11-06T22:15:56.110Z,6.35
2022-11-06T22:20:12.602Z,7.53
2022-11-06T22:24:26.406Z,7.30
2022-11-06T22:28:40.564Z,7.50
2022-11-06T22:32:54.345Z,5.70
2022-11-06T22:37:09.449Z,7.30
2022-11-06T22:41:24.954Z,6.18
2022-11-06T22:45:42.060Z,7.35
2022-11-06T22:49:56.484Z,5.73
2022-11-06T22:54:11.625Z,6.43
2022-11-06T22:58:25.709Z,5.82
2022-11-06T23:02:42.255Z,6.27
2022-11-06T23:06:56.056Z,5.30
2022-11-06T23:11:13.670Z,6.88
2022-11-06T23:15:27.356Z,6.88
2022-11-06T23:19:41.044Z,5.97
2022-11-06T23:23:54.727Z,6.15
2022-11-06T23:28:09.912Z,5.32
2022-11-06T23:32:23.797Z,6.63
2022-11-06T23:36:37.577Z,6.72
2022-11-06T23:40:51.256Z,5.95
2022-11-06T23:45:24.783Z,6.20
2022-11-06T23:49:38.540Z,6.00
2022-11-06T23:53:52.605Z,5.72
2022-11-06T23:58:08.268Z,6.25
